PST,Max TemperatureF,Mean TemperatureF,Min TemperatureF,Max Dew PointF,MeanDew PointF,Min DewpointF,Max Humidity, Mean Humidity, Min Humidity, Max Sea Level PressureIn, Mean Sea Level PressureIn, Min Sea Level PressureIn, Max VisibilityMiles, Mean VisibilityMiles, Min VisibilityMiles, Max Wind SpeedMPH, Mean Wind SpeedMPH, Max Gust SpeedMPH,PrecipitationIn, CloudCover, Events, WindDirDegrees
2013-2-1,40,30,19,32,22,15,100,85,70,30.50,30.37,30.29,10,4,0,7,2,8,0.00,5,Fog,287
2013-2-2,40,29,18,31,24,16,100,85,70,30.53,30.46,30.37,10,10,10,10,3,14,0.00,0,,333
2013-2-3,41,29,16,32,25,15,92,79,65,30.37,30.31,30.24,10,10,10,8,3,9,0.00,0,,249
2013-2-4,44,32,20,31,27,18,100,79,57,30.26,30.16,30.05,10,10,10,8,2,8,0.00,2,,216
2013-2-5,47,35,23,31,27,21,92,73,53,30.09,30.00,29.91,10,10,10,18,4,23,0.00,2,,267
2013-2-6,40,29,18,26,23,15,92,73,54,30.22,30.12,30.00,10,10,10,12,5,13,0.00,0,,74
2013-2-7,36,29,21,32,27,19,100,85,69,30.01,29.94,29.89,10,5,0,16,6,22,0.09,6,Fog-Snow,140
2013-2-8,36,27,18,22,18,14,88,72,56,30.07,30.03,30.00,10,10,10,24,11,32,0.00,1,,289
2013-2-9,39,28,17,25,20,13,88,70,52,30.13,30.07,29.97,10,10,10,25,9,30,0.00,2,,258
2013-2-10,42,33,24,27,21,18,85,63,41,30.22,30.17,30.07,10,10,10,22,10,28,0.00,1,,304
2013-2-11,42,28,14,27,21,11,92,73,53,30.31,30.26,30.20,10,10,10,13,4,14,0.00,0,,260
2013-2-12,43,34,25,31,27,23,92,75,57,30.43,30.39,30.31,10,10,10,13,4,16,0.00,6,,225
2013-2-13,46,35,24,31,27,23,92,75,57,30.43,30.39,30.35,10,10,10,14,5,17,0.00,4,,260
2013-2-14,44,35,26,32,28,24,92,76,60,30.55,30.50,30.42,10,10,10,14,6,16,0.00,1,,240
2013-2-15,48,35,22,36,28,21,96,78,60,30.56,30.48,30.37,10,10,10,9,3,10,0.00,0,,330
2013-2-16,52,38,23,34,26,20,96,70,44,30.35,30.20,30.05,10,10,10,23,5,31,T,1,,259
2013-2-17,38,29,20,23,20,17,96,72,48,30.17,30.13,30.10,10,10,10,15,6,18,0.00,0,,252
2013-2-18,42,31,20,30,24,18,92,71,50,30.12,29.89,29.69,10,8,1,16,6,20,0.07,4,Snow,324
2013-2-19,37,25,13,29,23,10,100,80,59,29.88,29.70,29.64,10,6,0,13,3,21,0.06,5,Fog-Snow,281
2013-2-20,39,27,15,23,20,14,92,68,44,30.02,29.97,29.90,10,10,10,15,6,20,0.00,4,,249
2013-2-21,37,28,19,25,22,17,92,74,56,30.16,30.11,30.02,10,10,10,17,6,22,T,6,,239
2013-2-22,40,33,26,34,29,21,96,75,54,30.18,29.99,29.81,10,8,1,37,7,51,0.08,8,Rain-Snow,221
2013-2-23,38,31,23,21,18,16,75,64,52,30.32,30.13,29.89,10,10,10,26,15,36,T,2,,268
2013-2-24,37,26,15,23,18,13,88,68,48,30.42,30.33,30.21,10,10,10,13,5,17,0.00,0,,257
2013-2-25,40,30,20,27,23,16,96,72,48,30.28,30.14,30.04,10,7,1,30,9,39,0.01,5,Snow,259
2013-2-26,38,27,15,22,18,13,92,66,40,30.40,30.34,30.28,10,10,10,13,3,17,0.00,1,,256
2013-2-27,45,31,17,27,21,14,92,66,39,30.40,30.35,30.33,10,10,10,9,3,10,0.00,5,,283
2013-2-28,49,39,29,39,32,27,100,86,71,30.55,30.39,30.30,10,8,1,17,3,22,0.04,8,Rain-Snow,9